»·PEaware :: QXE2576 KSMF-KPDX

QXE2576 :: KSMF-KPDX

FLIGHT INFORMATION

Flight Status: Arrived
Operator:
Horizon Air
More flights by this operator :: More flights under this callsign
Pilot: Anonymous 16594 (16594)
Aircraft: DEHAVILLAND DASH 8 400
(DH8D)
More flights by this aircraft type
Origin: KSMF Sacramento Intl
United States
Destination: KPDX Portland Intl
United States
More flights between these airports :: More routes between these airports
Route: +DUDES9 FMG J92 LMT MOXEE6
File this flight plan on PilotEdge
Remarks:
Altitude:
(Current/Filed)
24,000ft
Speed:
(Current/Filed)
348kts
Departed: 23-Sep-17 07:39 AM
Arrived: 23-Sep-17 10:03 AM
Distance/Time
Traveled:
416nm/2:24
Distance/Time
To Go:
Arrived

Flight Plot

Page will automatically refresh every two minutes.

Flight plan parsing failed; only flown route is shown


Map Options




Map Legend


Flown Route
Filed Route
Departure Airport
Arrival Airport
Navaid (VOR, NDB)
Fix

Horizontal Profiles

Position Reports

Time Latitude Longitude Heading Altitude Ground
Speed
23-Sep-17 07:07 38.693453 -121.587703 81 35ft 0kts
23-Sep-17 07:08 38.693453 -121.587703 81 35ft 0kts
23-Sep-17 07:09 38.693453 -121.587703 81 35ft 0kts
23-Sep-17 07:10 38.693453 -121.587703 81 35ft 0kts
23-Sep-17 07:11 38.693453 -121.587703 81 35ft 0kts
23-Sep-17 07:12 38.693453 -121.587703 81 35ft 0kts
23-Sep-17 07:13 38.693453 -121.587703 81 35ft 0kts
23-Sep-17 07:14 38.693453 -121.587703 81 35ft 0kts
23-Sep-17 07:15 38.693453 -121.587703 81 35ft 0kts
23-Sep-17 07:16 38.693453 -121.587703 81 35ft 0kts
23-Sep-17 07:17 38.693453 -121.587703 81 35ft 0kts
23-Sep-17 07:18 38.693453 -121.587703 81 35ft 0kts
23-Sep-17 07:19 38.693453 -121.587703 81 35ft 0kts
23-Sep-17 07:20 38.693453 -121.587703 81 35ft 0kts
23-Sep-17 07:21 38.693454 -121.587954 116 35ft 2kts
23-Sep-17 07:22 38.693954 -121.588108 178 35ft 2kts
23-Sep-17 07:23 38.694600 -121.588129 178 35ft 2kts
23-Sep-17 07:24 38.695191 -121.588295 121 35ft 2kts
23-Sep-17 07:25 38.695148 -121.588611 63 35ft 0kts
23-Sep-17 07:26 38.695148 -121.588611 63 35ft 0kts
23-Sep-17 07:27 38.695148 -121.588611 63 35ft 0kts
23-Sep-17 07:28 38.695148 -121.588611 63 35ft 0kts
23-Sep-17 07:29 38.695148 -121.588611 63 35ft 0kts
23-Sep-17 07:30 38.695148 -121.588611 63 35ft 0kts
23-Sep-17 07:31 38.695148 -121.588611 63 35ft 0kts
23-Sep-17 07:32 38.695148 -121.588611 63 35ft 0kts
23-Sep-17 07:33 38.695148 -121.588611 63 35ft 0kts
23-Sep-17 07:34 38.695624 -121.587403 56 35ft 18kts
23-Sep-17 07:35 38.697235 -121.583709 90 35ft 8kts
23-Sep-17 07:36 38.702295 -121.582820 1 35ft 20kts
23-Sep-17 07:37 38.706923 -121.581525 91 35ft 15kts
23-Sep-17 07:38 38.706899 -121.581005 95 35ft 0kts
23-Sep-17 07:39 38.706899 -121.581005 95 35ft 0kts
23-Sep-17 07:40 38.706899 -121.581005 95 35ft 0kts
23-Sep-17 07:41 38.706874 -121.580716 95 35ft 8kts
23-Sep-17 07:42 38.705879 -121.580047 181 35ft 33kts
23-Sep-17 07:43 38.670591 -121.576420 152 1387ft 148kts
23-Sep-17 07:44 38.632910 -121.534537 134 3549ft 192kts
23-Sep-17 07:45 38.591548 -121.486929 134 5896ft 205kts
23-Sep-17 07:46 38.547286 -121.435763 134 8233ft 218kts
23-Sep-17 07:47 38.501625 -121.382113 133 9707ft 222kts
23-Sep-17 07:48 38.492820 -121.308177 74 10793ft 221kts
23-Sep-17 07:49 38.508526 -121.230894 67 12872ft 226kts
23-Sep-17 07:50 38.526623 -121.152577 67 14647ft 232kts
23-Sep-17 07:51 38.543296 -121.071141 66 16205ft 238kts
23-Sep-17 07:52 38.560433 -120.988115 65 17592ft 243kts
23-Sep-17 07:53 38.577716 -120.904053 63 18821ft 247kts
23-Sep-17 07:54 38.595431 -120.818045 63 19889ft 251kts
23-Sep-17 07:55 38.613223 -120.730474 62 20849ft 255kts
23-Sep-17 07:56 38.631137 -120.641991 62 21712ft 258kts
23-Sep-17 07:57 38.648781 -120.553667 62 22673ft 253kts
23-Sep-17 07:58 38.666535 -120.465675 60 23395ft 256kts
23-Sep-17 07:59 38.684436 -120.376487 60 23988ft 260kts
23-Sep-17 08:00 38.703368 -120.283455 61 24102ft 281kts
23-Sep-17 08:01 38.738917 -120.199873 25 24110ft 262kts
23-Sep-17 08:02 38.802434 -120.151370 21 24089ft 271kts
23-Sep-17 08:03 38.870043 -120.105595 20 24081ft 278kts
23-Sep-17 08:04 38.938926 -120.059231 21 24084ft 281kts
23-Sep-17 08:05 39.008343 -120.012265 21 24089ft 284kts
23-Sep-17 08:06 39.078296 -119.965307 21 24107ft 285kts
23-Sep-17 08:07 39.147186 -119.918395 22 24120ft 287kts
23-Sep-17 08:08 39.217462 -119.870557 22 24126ft 288kts
23-Sep-17 08:09 39.288335 -119.822287 22 24128ft 289kts
23-Sep-17 08:10 39.358965 -119.774171 22 24130ft 289kts
23-Sep-17 08:11 39.429696 -119.725771 22 24129ft 289kts
23-Sep-17 08:12 39.500876 -119.677844 17 24126ft 287kts
23-Sep-17 08:13 39.576466 -119.694016 339 24128ft 286kts
23-Sep-17 08:14 39.646820 -119.742672 333 24128ft 289kts
23-Sep-17 08:15 39.715914 -119.795648 334 24127ft 289kts
23-Sep-17 08:16 39.785076 -119.848188 334 24126ft 288kts
23-Sep-17 08:17 39.854306 -119.900943 334 24126ft 288kts
23-Sep-17 08:18 39.923251 -119.953606 334 24127ft 288kts
23-Sep-17 08:19 39.992068 -120.006295 334 24127ft 288kts
23-Sep-17 08:20 40.060763 -120.059016 334 24129ft 288kts
23-Sep-17 08:21 40.129918 -120.112216 333 24131ft 288kts
23-Sep-17 08:22 40.198030 -120.164736 333 24127ft 288kts
23-Sep-17 08:23 40.266712 -120.217825 333 24130ft 288kts
23-Sep-17 08:24 40.335446 -120.271079 333 24132ft 288kts
23-Sep-17 08:25 40.404178 -120.324452 333 24136ft 288kts
23-Sep-17 08:26 40.473251 -120.377754 333 24138ft 288kts
23-Sep-17 08:27 40.541944 -120.431358 333 24138ft 288kts
23-Sep-17 08:28 40.610627 -120.485104 333 24139ft 288kts
23-Sep-17 08:29 40.679763 -120.539324 333 24140ft 288kts
23-Sep-17 08:30 40.748432 -120.593310 333 24140ft 288kts
23-Sep-17 08:31 40.817365 -120.647636 333 24141ft 288kts
23-Sep-17 08:32 40.886003 -120.701861 333 24142ft 288kts
23-Sep-17 08:33 40.954694 -120.756260 333 24144ft 288kts
23-Sep-17 08:34 41.023253 -120.810690 333 24147ft 288kts
23-Sep-17 08:35 41.092063 -120.865489 333 24150ft 288kts
23-Sep-17 08:36 41.160547 -120.920081 333 24152ft 288kts
23-Sep-17 08:37 41.229026 -120.974837 333 24154ft 288kts
23-Sep-17 08:38 41.297619 -121.029819 333 24156ft 288kts
23-Sep-17 08:39 41.365809 -121.084676 333 24160ft 287kts
23-Sep-17 08:40 41.433946 -121.139556 333 24161ft 287kts
23-Sep-17 08:41 41.501948 -121.194480 333 24161ft 286kts
23-Sep-17 08:42 41.570313 -121.249837 333 24160ft 286kts
23-Sep-17 08:43 41.637716 -121.304578 333 24160ft 285kts
23-Sep-17 08:44 41.704639 -121.359046 333 24160ft 285kts
23-Sep-17 08:45 41.771810 -121.413809 333 24161ft 284kts
23-Sep-17 08:46 41.838588 -121.468456 333 24161ft 283kts
23-Sep-17 08:47 41.905326 -121.523180 333 24164ft 281kts
23-Sep-17 08:48 41.971522 -121.577582 333 24165ft 280kts
23-Sep-17 08:49 42.037477 -121.631791 333 24163ft 280kts
23-Sep-17 08:50 42.104241 -121.686999 332 24166ft 283kts
23-Sep-17 08:51 42.173040 -121.737455 342 24165ft 281kts
23-Sep-17 08:52 42.246173 -121.773177 342 24165ft 281kts
23-Sep-17 08:53 42.319708 -121.809921 342 24161ft 281kts
23-Sep-17 08:54 42.392881 -121.846511 342 24167ft 281kts
23-Sep-17 08:55 42.466064 -121.883216 342 24166ft 282kts
23-Sep-17 08:56 42.539484 -121.920060 342 24166ft 283kts
23-Sep-17 08:57 42.613407 -121.957294 342 24168ft 284kts
23-Sep-17 08:58 42.687301 -121.994642 342 24173ft 284kts
23-Sep-17 08:59 42.760832 -122.031832 342 24174ft 281kts
23-Sep-17 09:00 42.833565 -122.068777 342 24175ft 278kts
23-Sep-17 09:01 42.893941 -122.099494 341 24176ft 277kts
23-Sep-17 09:02 42.977776 -122.142231 341 24176ft 275kts
23-Sep-17 09:03 43.049277 -122.178785 341 24177ft 275kts
23-Sep-17 09:04 43.121225 -122.215668 341 24178ft 275kts
23-Sep-17 09:05 43.192689 -122.252388 341 24178ft 275kts
23-Sep-17 09:06 43.264231 -122.289171 341 24176ft 276kts
23-Sep-17 09:07 43.324177 -122.320211 341 24178ft 276kts
23-Sep-17 09:08 43.396010 -122.357379 341 24180ft 277kts
23-Sep-17 09:09 43.468123 -122.394797 341 24180ft 278kts
23-Sep-17 09:10 43.540420 -122.432407 341 24180ft 279kts
23-Sep-17 09:11 43.613044 -122.470285 341 24181ft 279kts
23-Sep-17 09:12 43.685507 -122.508161 341 24181ft 280kts
23-Sep-17 09:13 43.758323 -122.546351 341 24181ft 280kts
23-Sep-17 09:14 43.830976 -122.584539 341 24181ft 280kts
23-Sep-17 09:15 43.903913 -122.622978 341 24181ft 280kts
23-Sep-17 09:16 43.976402 -122.661280 341 24182ft 281kts
23-Sep-17 09:17 44.049341 -122.699909 341 24182ft 280kts
23-Sep-17 09:18 44.122311 -122.738681 341 24182ft 280kts
23-Sep-17 09:19 44.198602 -122.746983 0 24183ft 279kts
23-Sep-17 09:20 44.276072 -122.740676 1 24182ft 279kts
23-Sep-17 09:21 44.352927 -122.733089 1 24113ft 279kts
23-Sep-17 09:22 44.428016 -122.725712 1 22364ft 261kts
23-Sep-17 09:23 44.497432 -122.718844 2 20657ft 240kts
23-Sep-17 09:24 44.561718 -122.712572 2 18724ft 231kts
23-Sep-17 09:25 44.624436 -122.706283 2 16982ft 221kts
23-Sep-17 09:26 44.685028 -122.700225 2 15280ft 217kts
23-Sep-17 09:27 44.744949 -122.694266 2 13607ft 219kts
23-Sep-17 09:28 44.805456 -122.688196 4 11925ft 216kts
23-Sep-17 09:29 44.865053 -122.681980 4 10129ft 205kts
23-Sep-17 09:30 44.918588 -122.676531 2 10013ft 196kts
23-Sep-17 09:31 44.977355 -122.670583 4 9983ft 226kts
23-Sep-17 09:32 45.043424 -122.663957 2 10006ft 248kts
23-Sep-17 09:33 45.114983 -122.656647 3 9449ft 276kts
23-Sep-17 09:34 45.189331 -122.649060 3 7711ft 254kts
23-Sep-17 09:35 45.254725 -122.642455 3 6097ft 221kts
23-Sep-17 09:36 45.313436 -122.636535 3 4492ft 204kts
23-Sep-17 09:37 45.373066 -122.630415 3 4018ft 227kts
23-Sep-17 09:38 45.436159 -122.616240 37 3994ft 237kts
23-Sep-17 09:39 45.435048 -122.529533 116 3996ft 240kts
23-Sep-17 09:40 45.406299 -122.446246 116 3993ft 230kts
23-Sep-17 09:41 45.378383 -122.365234 116 3992ft 225kts
23-Sep-17 09:42 45.351071 -122.285847 113 3989ft 222kts
23-Sep-17 09:43 45.382414 -122.232263 351 3995ft 213kts
23-Sep-17 09:44 45.441142 -122.251718 345 3992ft 219kts
23-Sep-17 09:45 45.495607 -122.270481 345 4008ft 188kts
23-Sep-17 09:46 45.544420 -122.288087 330 3977ft 176kts
23-Sep-17 09:47 45.538614 -122.353804 236 3239ft 215kts
23-Sep-17 09:48 45.529855 -122.428112 284 2268ft 197kts
23-Sep-17 09:49 45.545964 -122.494882 297 1510ft 171kts
23-Sep-17 09:50 45.567282 -122.549311 299 554ft 154kts
23-Sep-17 09:51 45.586980 -122.601515 296 665ft 147kts
23-Sep-17 09:52 45.604941 -122.656679 285 1282ft 157kts
23-Sep-17 09:53 45.616963 -122.719885 292 2270ft 165kts
23-Sep-17 09:54 45.617398 -122.790405 221 2981ft 233kts
23-Sep-17 09:55 45.555841 -122.820734 195 2985ft 225kts
23-Sep-17 09:56 45.497154 -122.844501 196 2989ft 213kts
23-Sep-17 09:57 45.444894 -122.835464 115 2992ft 208kts
23-Sep-17 09:58 45.436045 -122.756022 95 3035ft 191kts
23-Sep-17 09:59 45.430275 -122.683999 95 2998ft 177kts
23-Sep-17 10:00 45.427879 -122.614817 69 2997ft 173kts
23-Sep-17 10:01 45.448711 -122.552860 62 2996ft 171kts
23-Sep-17 10:02 45.470701 -122.492921 52 2993ft 170kts
23-Sep-17 10:03 45.506252 -122.447730 5 2449ft 177kts
23-Sep-17 10:04 45.541360 -122.488435 302 1496ft 165kts
23-Sep-17 10:05 45.562134 -122.537227 299 852ft 138kts
23-Sep-17 10:06 45.580564 -122.583973 297 77ft 128kts
23-Sep-17 10:07 45.586556 -122.597943 22 37ft 6kts
23-Sep-17 10:08 45.586714 -122.597842 24 37ft 0kts
23-Sep-17 10:09 45.586714 -122.597841 24 37ft 0kts
23-Sep-17 10:10 45.587556 -122.596213 112 37ft 12kts
23-Sep-17 10:11 45.586576 -122.593377 48 37ft 3kts
23-Sep-17 10:12 45.586872 -122.592919 47 37ft 0kts
23-Sep-17 10:13 45.586872 -122.592919 47 37ft 0kts
23-Sep-17 10:14 45.586872 -122.592919 47 37ft 0kts

Navigation Log

Ident Type
Flight plan parsing failed, navigation log unavailable